Goodville, Texas
Current Conditions -  °F | °C
As of 1:15 AM on Thursday 23 Oct 2014 (Local Time) from KTPL Reporting Station
Clear Clear  
Wind Chill: 68°   Ceiling: Unl
Heat Index: 68°   Visibility: 10mi
Dew Point: 54°   Wind: 8mph
Humidity: 60%   Direction: 110°ESE
Pressure: 30.1"   Gusts: NA
Location:  31.1912°N, 97.0719°W
Report Text: KTPL 230615Z AUTO 11007KT 10SM CLR 20/12 A3010 RMK AO1
Loading
Personal Weather Stations






























Interactive Weather Map New forecast layout! Learn more

10-Day Weather Forecast

Advertisements
Track Severe Weather on mobile